createdAt,value
2023-03-21T00:00:48.090Z,91.36
2023-03-21T00:04:00.460Z,91.28
2023-03-21T00:07:10.311Z,91.28
2023-03-21T00:10:23.938Z,91.39
2023-03-21T00:13:42.557Z,91.48
2023-03-21T00:16:51.753Z,91.83
2023-03-21T00:20:19.288Z,91.98
2023-03-21T00:23:37.526Z,92.53
2023-03-21T00:26:46.141Z,92.53
2023-03-21T00:29:51.632Z,92.34
2023-03-21T00:32:57.188Z,92.32
2023-03-21T00:36:14.093Z,92.50
2023-03-21T00:39:19.819Z,92.46
2023-03-21T00:42:25.464Z,92.43
2023-03-21T00:45:31.838Z,92.83
2023-03-21T00:48:49.366Z,93.27
2023-03-21T00:52:20.338Z,93.32
2023-03-21T00:55:45.915Z,93.13
2023-03-21T00:58:55.762Z,93.06
2023-03-21T01:02:07.364Z,93.25
2023-03-21T01:05:41.776Z,93.61
2023-03-21T01:08:52.687Z,94.06
2023-03-21T01:11:58.781Z,94.01
2023-03-21T01:15:24.521Z,94.09
2023-03-21T01:18:30.960Z,94.14
2023-03-21T01:21:36.895Z,94.30
2023-03-21T01:24:52.441Z,94.49
2023-03-21T01:27:59.685Z,94.69
2023-03-21T01:31:06.198Z,94.63
2023-03-21T01:34:12.050Z,94.72
2023-03-21T01:37:20.269Z,95.16
2023-03-21T01:40:29.864Z,95.45
2023-03-21T01:43:49.863Z,95.39
2023-03-21T01:47:10.460Z,96.05
2023-03-21T01:50:46.883Z,95.99
2023-03-21T01:54:14.929Z,96.21
2023-03-21T01:57:25.876Z,96.23
2023-03-21T02:00:36.599Z,96.85
2023-03-21T02:03:52.854Z,96.75
2023-03-21T02:07:23.143Z,97.02
2023-03-21T02:10:33.300Z,97.09
2023-03-21T02:13:39.456Z,96.78
2023-03-21T02:16:52.083Z,96.60
2023-03-21T02:20:31.558Z,96.69
2023-03-21T02:24:01.324Z,96.72
2023-03-21T02:27:09.945Z,96.91
2023-03-21T02:30:50.851Z,96.77
2023-03-21T02:34:04.244Z,96.84
2023-03-21T02:37:18.496Z,97.02
2023-03-21T02:40:27.142Z,97.11
2023-03-21T02:43:40.876Z,97.08
2023-03-21T02:46:56.364Z,96.95
2023-03-21T02:50:23.838Z,97.04
2023-03-21T02:53:31.845Z,97.08
2023-03-21T02:56:43.229Z,97.21
2023-03-21T02:59:55.565Z,97.23
2023-03-21T03:03:15.946Z,97.29
2023-03-21T03:06:26.044Z,97.37
2023-03-21T03:09:38.472Z,97.41
2023-03-21T03:12:48.838Z,97.51
2023-03-21T03:16:00.457Z,97.52
2023-03-21T03:19:11.612Z,97.60
2023-03-21T03:22:24.818Z,97.89
2023-03-21T03:25:42.460Z,98.08
2023-03-21T03:28:52.501Z,98.08
2023-03-21T03:32:02.884Z,97.90
2023-03-21T03:35:11.312Z,97.94
2023-03-21T03:38:19.408Z,97.92
2023-03-21T03:41:50.262Z,97.89
2023-03-21T03:45:02.011Z,97.71
2023-03-21T03:48:15.870Z,97.94
2023-03-21T03:51:25.574Z,98.12
2023-03-21T03:54:48.924Z,97.98
2023-03-21T03:57:56.133Z,98.02
2023-03-21T04:01:01.922Z,97.95
2023-03-21T04:04:13.876Z,97.82
2023-03-21T04:07:22.415Z,97.88
2023-03-21T04:10:31.735Z,98.11
2023-03-21T04:13:56.540Z,98.10
2023-03-21T04:17:05.841Z,98.19
2023-03-21T04:20:20.722Z,98.35
2023-03-21T04:23:35.923Z,98.64
2023-03-21T04:26:42.156Z,98.81
2023-03-21T04:30:17.167Z,99.03
2023-03-21T04:33:48.120Z,99.30
2023-03-21T04:37:13.611Z,99.53
2023-03-21T04:40:32.242Z,99.61
2023-03-21T04:43:48.889Z,99.63
2023-03-21T04:47:05.772Z,99.73
2023-03-21T04:50:32.985Z,99.86
2023-03-21T04:53:58.819Z,99.97
2023-03-21T04:57:24.404Z,99.99
2023-03-21T05:00:37.540Z,99.89
2023-03-21T05:03:43.782Z,100.00
2023-03-21T05:06:59.785Z,99.90
2023-03-21T05:10:09.249Z,99.83
2023-03-21T05:13:15.594Z,99.83
2023-03-21T05:16:30.870Z,99.79
2023-03-21T05:19:40.698Z,99.65
2023-03-21T05:23:06.557Z,99.57
2023-03-21T05:26:12.117Z,99.41
2023-03-21T05:29:34.962Z,99.21
2023-03-21T05:32:41.981Z,99.14
2023-03-21T05:35:52.551Z,99.06
2023-03-21T05:39:01.958Z,99.05
2023-03-21T05:42:27.763Z,98.80
2023-03-21T05:45:58.409Z,98.73
2023-03-21T05:49:22.752Z,98.79
2023-03-21T05:52:46.022Z,98.76
2023-03-21T05:55:54.758Z,98.55
2023-03-21T05:59:18.712Z,98.36
2023-03-21T06:02:25.334Z,98.24
2023-03-21T06:05:41.043Z,98.24
2023-03-21T06:09:06.772Z,98.07
2023-03-21T06:12:15.806Z,97.88
2023-03-21T06:15:41.689Z,97.88
2023-03-21T06:19:02.939Z,97.83
2023-03-21T06:22:28.723Z,97.75
2023-03-21T06:25:54.610Z,97.67
2023-03-21T06:29:20.624Z,97.59
2023-03-21T06:32:35.396Z,97.57
2023-03-21T06:35:51.459Z,97.67
2023-03-21T06:39:11.509Z,97.26
2023-03-21T06:42:26.294Z,96.97
2023-03-21T06:45:37.036Z,96.71
2023-03-21T06:49:02.942Z,96.10
2023-03-21T06:52:13.023Z,96.16
2023-03-21T06:55:19.410Z,96.07
2023-03-21T06:58:28.172Z,95.24
2023-03-21T07:01:54.565Z,95.05
2023-03-21T07:05:11.219Z,95.36
2023-03-21T07:08:20.842Z,94.84
2023-03-21T07:11:29.690Z,94.46
2023-03-21T07:14:49.063Z,93.71
2023-03-21T07:18:00.361Z,92.99
2023-03-21T07:21:17.070Z,93.32
2023-03-21T07:24:42.807Z,92.92
2023-03-21T07:27:56.456Z,92.72
2023-03-21T07:31:27.038Z,92.45
2023-03-21T07:34:33.849Z,91.60
2023-03-21T07:37:59.531Z,91.66
2023-03-21T07:44:39.365Z,90.74
2023-03-21T07:47:45.000Z,90.09
2023-03-21T07:50:53.670Z,89.67
2023-03-21T07:54:08.082Z,89.72
2023-03-21T07:57:16.784Z,88.91
2023-03-21T08:00:23.908Z,88.06
2023-03-21T08:03:30.094Z,87.35
2023-03-21T08:06:35.913Z,87.63
2023-03-21T08:09:45.580Z,87.07
2023-03-21T08:12:51.302Z,86.45
2023-03-21T08:15:59.392Z,86.40
2023-03-21T08:19:04.949Z,86.22
2023-03-21T08:22:24.468Z,85.50
2023-03-21T08:25:56.350Z,83.65
2023-03-21T08:29:02.148Z,82.93
2023-03-21T08:32:13.433Z,82.27
2023-03-21T08:36:03.741Z,82.04
2023-03-21T08:39:25.002Z,83.13
2023-03-21T08:42:38.731Z,83.14
2023-03-21T08:45:47.785Z,81.16
2023-03-21T08:49:04.899Z,81.10
2023-03-21T08:56:47.695Z,79.57
2023-03-21T09:00:11.247Z,79.46
2023-03-21T09:03:26.061Z,79.96
2023-03-21T09:06:33.601Z,78.93
2023-03-21T09:10:19.104Z,77.63
2023-03-21T09:14:13.280Z,77.95
2023-03-21T09:17:50.387Z,78.99
2023-03-21T09:21:44.468Z,78.78
2023-03-21T09:24:53.556Z,79.20
2023-03-21T09:28:36.949Z,78.60
2023-03-21T09:32:29.573Z,77.56
2023-03-21T09:35:50.072Z,77.26
2023-03-21T09:39:01.122Z,78.18
2023-03-21T09:42:37.296Z,75.64
2023-03-21T09:46:13.257Z,76.04
2023-03-21T09:49:28.822Z,75.54
2023-03-21T09:52:45.185Z,75.25
2023-03-21T09:55:54.098Z,74.63
2023-03-21T09:59:20.588Z,74.35
2023-03-21T10:02:46.300Z,73.98
2023-03-21T10:06:07.539Z,73.00
2023-03-21T10:09:23.132Z,72.63
2023-03-21T10:12:43.571Z,72.90
2023-03-21T10:15:51.314Z,71.78
2023-03-21T10:18:57.243Z,70.66
2023-03-21T10:29:11.651Z,71.70
2023-03-21T10:32:19.449Z,72.12
2023-03-21T10:35:24.903Z,71.77
2023-03-21T10:38:32.474Z,70.60
2023-03-21T10:41:38.459Z,70.21
2023-03-21T10:44:47.919Z,70.33
2023-03-21T10:47:55.555Z,71.13
2023-03-21T10:51:39.237Z,69.53
2023-03-21T10:54:48.450Z,69.68
2023-03-21T10:58:00.625Z,68.44
2023-03-21T11:01:15.055Z,68.23
2023-03-21T11:04:23.344Z,66.01
2023-03-21T11:07:32.226Z,64.61
2023-03-21T11:11:01.274Z,65.56
2023-03-21T11:14:27.359Z,64.81
2023-03-21T11:17:36.131Z,64.32
2023-03-21T11:20:54.681Z,63.32
2023-03-21T11:24:00.389Z,60.73
2023-03-21T11:27:29.479Z,58.43
2023-03-21T11:30:35.469Z,56.66
2023-03-21T11:33:44.653Z,56.83
2023-03-21T11:36:51.785Z,54.75
2023-03-21T11:40:09.514Z,55.93
2023-03-21T11:43:28.904Z,56.78
2023-03-21T11:46:55.330Z,54.47
2023-03-21T11:50:05.510Z,54.03
2023-03-21T11:53:18.643Z,55.72
2023-03-21T11:56:28.631Z,56.42
2023-03-21T11:59:41.465Z,55.92
2023-03-21T12:02:57.862Z,53.56
2023-03-21T12:06:20.702Z,53.40
2023-03-21T12:09:35.371Z,53.76
2023-03-21T12:12:59.481Z,54.11
2023-03-21T12:16:12.413Z,51.13
2023-03-21T12:19:31.472Z,50.96
2023-03-21T12:22:42.399Z,52.80
2023-03-21T12:25:54.811Z,53.15
2023-03-21T12:29:27.652Z,52.54
2023-03-21T12:32:43.252Z,52.40
2023-03-21T12:36:02.918Z,50.70
2023-03-21T12:39:17.009Z,51.12
2023-03-21T12:42:38.564Z,52.27
2023-03-21T12:45:47.989Z,52.48
2023-03-21T12:48:56.852Z,51.79
2023-03-21T12:52:07.120Z,52.25
2023-03-21T12:55:24.085Z,52.60
2023-03-21T12:58:37.328Z,52.51
2023-03-21T13:02:08.470Z,52.24
2023-03-21T13:05:19.590Z,50.08
2023-03-21T13:08:28.437Z,51.27
2023-03-21T13:11:35.659Z,50.61
2023-03-21T13:14:50.874Z,50.89
2023-03-21T13:18:14.903Z,51.54
2023-03-21T13:21:29.059Z,50.89
2023-03-21T13:24:43.957Z,51.21
2023-03-21T13:27:56.640Z,52.33
2023-03-21T13:31:15.674Z,52.43
2023-03-21T13:34:32.002Z,52.14
2023-03-21T13:37:42.325Z,52.66
2023-03-21T13:40:49.980Z,53.87
2023-03-21T13:43:56.291Z,54.28
2023-03-21T13:47:22.605Z,54.33
2023-03-21T13:50:31.446Z,54.12
2023-03-21T13:53:39.228Z,54.64
2023-03-21T13:56:52.149Z,55.46
2023-03-21T14:00:14.047Z,55.72
2023-03-21T14:03:22.653Z,55.96
2023-03-21T14:06:36.366Z,56.46
2023-03-21T14:09:44.915Z,56.71
2023-03-21T14:13:09.000Z,56.71
2023-03-21T14:16:18.390Z,56.52
2023-03-21T14:19:31.260Z,56.61
2023-03-21T14:22:40.388Z,56.72
2023-03-21T14:25:48.508Z,56.80
2023-03-21T14:28:57.023Z,56.83
2023-03-21T14:32:06.002Z,57.02
2023-03-21T14:35:13.197Z,57.02
2023-03-21T14:38:40.332Z,57.50
2023-03-21T14:42:06.669Z,57.16
2023-03-21T14:45:24.755Z,57.34
2023-03-21T14:48:33.531Z,57.65
2023-03-21T14:51:45.646Z,58.44
2023-03-21T14:54:54.504Z,58.81
2023-03-21T14:58:00.297Z,59.50
2023-03-21T15:01:10.213Z,60.01
2023-03-21T15:04:36.866Z,60.37
2023-03-21T15:07:53.280Z,60.72
2023-03-21T15:11:09.424Z,60.83
2023-03-21T15:14:18.201Z,60.55
2023-03-21T15:17:24.135Z,60.73
2023-03-21T15:20:33.968Z,60.81
2023-03-21T15:23:45.889Z,60.79
2023-03-21T15:26:57.473Z,61.34
2023-03-21T15:30:06.265Z,61.89
2023-03-21T15:33:13.830Z,62.08
2023-03-21T15:36:33.692Z,62.37
2023-03-21T15:40:11.560Z,62.60
2023-03-21T15:43:20.691Z,63.23
2023-03-21T15:46:35.661Z,63.56
2023-03-21T15:49:42.463Z,63.95
2023-03-21T15:52:49.838Z,64.28
2023-03-21T15:56:04.238Z,64.30
2023-03-21T15:59:14.088Z,64.42
2023-03-21T16:02:21.789Z,64.68
2023-03-21T16:05:40.438Z,64.80
2023-03-21T16:09:06.225Z,65.10
2023-03-21T16:12:13.647Z,65.24
2023-03-21T16:15:40.775Z,65.39
2023-03-21T16:19:04.563Z,65.69
2023-03-21T16:22:13.029Z,65.92
2023-03-21T16:25:22.101Z,66.10
2023-03-21T16:28:31.975Z,66.30
2023-03-21T16:31:38.163Z,66.51
2023-03-21T16:34:53.916Z,66.70
2023-03-21T16:38:18.480Z,66.94
2023-03-21T16:41:25.536Z,67.29
2023-03-21T16:44:31.382Z,67.59
2023-03-21T16:47:36.940Z,67.84
2023-03-21T16:50:49.928Z,68.15
2023-03-21T16:53:56.285Z,68.35
2023-03-21T16:57:03.151Z,68.53
2023-03-21T17:00:30.994Z,68.89
2023-03-21T17:03:38.041Z,69.04
2023-03-21T17:06:45.788Z,69.25
2023-03-21T17:09:51.735Z,69.65
2023-03-21T17:13:00.729Z,69.85
2023-03-21T17:16:07.146Z,69.99
2023-03-21T17:19:20.014Z,70.29
2023-03-21T17:22:25.663Z,70.54
2023-03-21T17:25:41.223Z,70.72
2023-03-21T17:28:49.155Z,71.01
2023-03-21T17:31:57.670Z,71.17
2023-03-21T17:35:06.585Z,71.33
2023-03-21T17:38:16.036Z,71.46
2023-03-21T17:41:22.836Z,71.62
2023-03-21T17:44:39.660Z,71.75
2023-03-21T17:47:45.693Z,72.04
2023-03-21T17:50:59.802Z,72.09
2023-03-21T17:54:06.250Z,72.22
2023-03-21T17:57:12.806Z,72.43
2023-03-21T18:00:23.081Z,72.55
2023-03-21T18:03:31.082Z,72.91
2023-03-21T18:06:39.577Z,73.07
2023-03-21T18:09:52.494Z,73.32
2023-03-21T18:13:01.507Z,73.44
2023-03-21T18:16:08.106Z,73.74
2023-03-21T18:19:16.873Z,73.93
2023-03-21T18:22:25.381Z,74.04
2023-03-21T18:25:33.904Z,74.20
2023-03-21T18:28:42.168Z,74.45
2023-03-21T18:32:04.369Z,74.55
2023-03-21T18:35:18.070Z,74.81
2023-03-21T18:38:26.486Z,74.68
2023-03-21T18:41:57.087Z,74.82
2023-03-21T18:45:25.254Z,74.87
2023-03-21T18:48:33.024Z,75.11
2023-03-21T18:51:52.702Z,75.16
2023-03-21T18:54:58.721Z,75.36
2023-03-21T18:58:04.378Z,75.39
2023-03-21T19:01:19.227Z,75.55
2023-03-21T19:04:30.333Z,75.68
2023-03-21T19:07:36.341Z,75.71
2023-03-21T19:10:41.826Z,75.97
2023-03-21T19:13:48.901Z,76.17
2023-03-21T19:18:15.384Z,76.39
2023-03-21T19:20:53.610Z,76.36
2023-03-21T19:24:25.255Z,76.51
2023-03-21T19:27:28.096Z,76.76
2023-03-21T19:30:36.737Z,77.01
2023-03-21T19:33:42.516Z,77.08
2023-03-21T19:36:52.328Z,77.23
2023-03-21T19:40:00.426Z,77.48
2023-03-21T19:43:31.579Z,77.92
2023-03-21T19:46:39.731Z,78.09
2023-03-21T19:53:31.031Z,78.22
2023-03-21T19:56:39.022Z,78.49
2023-03-21T19:59:44.737Z,78.73
2023-03-21T20:03:00.340Z,78.85
2023-03-21T20:06:07.057Z,78.97
2023-03-21T20:09:50.628Z,79.10
2023-03-21T20:12:50.530Z,79.35
2023-03-21T20:16:00.374Z,79.51
2023-03-21T20:19:10.329Z,79.55
2023-03-21T20:22:31.196Z,79.73
2023-03-21T20:25:49.235Z,79.71
2023-03-21T20:29:27.847Z,79.93
2023-03-21T20:32:24.810Z,79.99
2023-03-21T20:36:22.944Z,80.15
2023-03-21T20:38:58.899Z,80.19
2023-03-21T20:42:08.063Z,80.20
2023-03-21T20:45:17.752Z,80.34
2023-03-21T20:48:26.603Z,80.54
2023-03-21T20:55:22.621Z,80.77
2023-03-21T20:58:59.445Z,80.94
2023-03-21T21:02:05.360Z,80.98
2023-03-21T21:05:25.318Z,81.06
2023-03-21T21:08:35.267Z,81.23
2023-03-21T21:15:11.131Z,81.72
2023-03-21T21:18:18.849Z,81.80
2023-03-21T21:21:24.362Z,81.73
2023-03-21T21:24:31.584Z,82.03
2023-03-21T21:27:37.191Z,82.00
2023-03-21T21:30:42.878Z,82.04
2023-03-21T21:33:50.195Z,82.26
2023-03-21T21:37:03.561Z,82.32
2023-03-21T21:40:20.788Z,82.45
2023-03-21T21:43:26.577Z,82.61
2023-03-21T21:46:34.427Z,82.92
2023-03-21T21:49:43.146Z,83.02
2023-03-21T21:53:09.341Z,83.41
2023-03-21T21:56:17.764Z,83.42
2023-03-21T21:59:25.812Z,83.38
2023-03-21T22:02:41.485Z,83.57
2023-03-21T22:05:47.878Z,83.49
2023-03-21T22:08:53.473Z,83.97
2023-03-21T22:12:15.922Z,83.77
2023-03-21T22:15:24.039Z,83.99
2023-03-21T22:18:36.009Z,83.93
2023-03-21T22:22:01.458Z,84.25
2023-03-21T22:25:11.356Z,84.21
2023-03-21T22:28:28.069Z,84.26
2023-03-21T22:31:38.876Z,84.40
2023-03-21T22:34:44.457Z,84.56
2023-03-21T22:37:49.860Z,84.37
2023-03-21T22:40:55.924Z,84.44
2023-03-21T22:44:13.172Z,84.62
2023-03-21T22:47:19.332Z,84.57
2023-03-21T22:50:24.951Z,84.58
2023-03-21T22:53:33.638Z,84.57
2023-03-21T22:56:42.580Z,84.34
2023-03-21T23:00:01.475Z,84.61
2023-03-21T23:03:07.295Z,84.46
2023-03-21T23:06:19.696Z,84.33
2023-03-21T23:09:28.433Z,84.44
2023-03-21T23:12:33.990Z,84.29
2023-03-21T23:15:40.073Z,84.36
2023-03-21T23:18:53.780Z,84.38
2023-03-21T23:22:02.058Z,84.54
2023-03-21T23:25:20.738Z,84.52
2023-03-21T23:28:38.350Z,84.56
2023-03-21T23:31:43.981Z,84.67
2023-03-21T23:34:49.620Z,84.57
2023-03-21T23:37:58.247Z,84.59
2023-03-21T23:41:08.894Z,84.64
2023-03-21T23:44:17.215Z,84.93
2023-03-21T23:47:32.154Z,84.87
2023-03-21T23:50:57.877Z,85.04
2023-03-21T23:54:09.158Z,85.18
2023-03-21T23:57:23.825Z,85.21
